sensor_id;sensor_type;location;lat;lon;timestamp;temperature;humidity
9103;DHT22;4587;51.434;6.788;2023-02-12T00:01:22;8.80;99.90
9103;DHT22;4587;51.434;6.788;2023-02-12T00:03:48;8.80;99.90
9103;DHT22;4587;51.434;6.788;2023-02-12T00:06:13;8.80;99.90
9103;DHT22;4587;51.434;6.788;2023-02-12T00:08:39;8.80;99.90
9103;DHT22;4587;51.434;6.788;2023-02-12T00:11:18;8.80;99.90
9103;DHT22;4587;51.434;6.788;2023-02-12T00:13:44;8.70;99.90
9103;DHT22;4587;51.434;6.788;2023-02-12T00:16:13;8.70;99.90
9103;DHT22;4587;51.434;6.788;2023-02-12T00:18:39;8.70;99.90
9103;DHT22;4587;51.434;6.788;2023-02-12T00:21:05;8.80;99.90
9103;DHT22;4587;51.434;6.788;2023-02-12T00:23:33;8.80;99.90
9103;DHT22;4587;51.434;6.788;2023-02-12T00:25:59;8.80;99.90
9103;DHT22;4587;51.434;6.788;2023-02-12T00:28:25;8.80;99.90
9103;DHT22;4587;51.434;6.788;2023-02-12T00:30:51;8.80;99.90
9103;DHT22;4587;51.434;6.788;2023-02-12T00:33:17;8.70;99.90
9103;DHT22;4587;51.434;6.788;2023-02-12T00:35:43;8.70;99.90
9103;DHT22;4587;51.434;6.788;2023-02-12T00:38:08;8.70;99.90
9103;DHT22;4587;51.434;6.788;2023-02-12T00:40:34;8.70;99.90
9103;DHT22;4587;51.434;6.788;2023-02-12T00:42:59;8.70;99.90
9103;DHT22;4587;51.434;6.788;2023-02-12T00:45:25;8.70;99.90
9103;DHT22;4587;51.434;6.788;2023-02-12T00:47:51;8.70;99.90
9103;DHT22;4587;51.434;6.788;2023-02-12T00:50:16;8.70;99.90
9103;DHT22;4587;51.434;6.788;2023-02-12T00:52:42;8.70;99.90
9103;DHT22;4587;51.434;6.788;2023-02-12T00:55:07;8.70;99.90
9103;DHT22;4587;51.434;6.788;2023-02-12T00:57:33;8.70;99.90
9103;DHT22;4587;51.434;6.788;2023-02-12T00:59:59;8.70;99.90
9103;DHT22;4587;51.434;6.788;2023-02-12T01:02:24;8.70;99.90
9103;DHT22;4587;51.434;6.788;2023-02-12T01:04:50;8.70;99.90
9103;DHT22;4587;51.434;6.788;2023-02-12T01:07:16;8.70;99.90
9103;DHT22;4587;51.434;6.788;2023-02-12T01:09:41;8.70;99.90
9103;DHT22;4587;51.434;6.788;2023-02-12T01:12:07;8.80;99.90
9103;DHT22;4587;51.434;6.788;2023-02-12T01:14:33;8.70;99.90
9103;DHT22;4587;51.434;6.788;2023-02-12T01:16:58;8.70;99.90
9103;DHT22;4587;51.434;6.788;2023-02-12T01:19:24;8.70;99.90
9103;DHT22;4587;51.434;6.788;2023-02-12T01:21:49;8.70;99.90
9103;DHT22;4587;51.434;6.788;2023-02-12T01:24:15;8.70;99.90
9103;DHT22;4587;51.434;6.788;2023-02-12T01:26:40;8.70;99.90
9103;DHT22;4587;51.434;6.788;2023-02-12T01:29:07;8.70;99.90
9103;DHT22;4587;51.434;6.788;2023-02-12T01:31:35;8.70;99.90
9103;DHT22;4587;51.434;6.788;2023-02-12T01:34:02;8.80;99.90
9103;DHT22;4587;51.434;6.788;2023-02-12T01:36:29;8.70;99.90
9103;DHT22;4587;51.434;6.788;2023-02-12T01:38:55;8.70;99.90
9103;DHT22;4587;51.434;6.788;2023-02-12T01:41:27;8.70;99.90
9103;DHT22;4587;51.434;6.788;2023-02-12T01:44:13;8.70;99.90
9103;DHT22;4587;51.434;6.788;2023-02-12T01:46:41;8.60;99.90
9103;DHT22;4587;51.434;6.788;2023-02-12T01:49:19;8.60;99.90
9103;DHT22;4587;51.434;6.788;2023-02-12T01:51:47;8.60;99.90
9103;DHT22;4587;51.434;6.788;2023-02-12T01:54:16;8.60;99.90
9103;DHT22;4587;51.434;6.788;2023-02-12T01:56:44;8.60;99.90
9103;DHT22;4587;51.434;6.788;2023-02-12T01:59:10;8.70;99.90
9103;DHT22;4587;51.434;6.788;2023-02-12T02:01:37;8.70;99.90
9103;DHT22;4587;51.434;6.788;2023-02-12T02:04:11;8.70;99.90
9103;DHT22;4587;51.434;6.788;2023-02-12T02:06:44;8.70;99.90
9103;DHT22;4587;51.434;6.788;2023-02-12T02:09:12;8.70;99.90
9103;DHT22;4587;51.434;6.788;2023-02-12T02:11:38;8.60;99.90
9103;DHT22;4587;51.434;6.788;2023-02-12T02:14:22;8.60;99.90
9103;DHT22;4587;51.434;6.788;2023-02-12T02:45:10;8.60;99.90
9103;DHT22;4587;51.434;6.788;2023-02-12T02:47:43;8.50;99.90
9103;DHT22;4587;51.434;6.788;2023-02-12T02:50:16;8.50;99.90
9103;DHT22;4587;51.434;6.788;2023-02-12T02:52:51;8.60;99.90
9103;DHT22;4587;51.434;6.788;2023-02-12T02:55:20;8.50;99.90
9103;DHT22;4587;51.434;6.788;2023-02-12T02:57:59;8.50;99.90
9103;DHT22;4587;51.434;6.788;2023-02-12T03:00:38;8.50;99.90
9103;DHT22;4587;51.434;6.788;2023-02-12T03:03:14;8.50;99.90
9103;DHT22;4587;51.434;6.788;2023-02-12T03:05:46;8.60;99.90
9103;DHT22;4587;51.434;6.788;2023-02-12T03:08:25;8.70;99.90
9103;DHT22;4587;51.434;6.788;2023-02-12T03:11:26;8.70;99.90
9103;DHT22;4587;51.434;6.788;2023-02-12T03:16:37;8.60;99.90
9103;DHT22;4587;51.434;6.788;2023-02-12T03:19:10;8.60;99.90
9103;DHT22;4587;51.434;6.788;2023-02-12T03:21:57;8.50;99.90
9103;DHT22;4587;51.434;6.788;2023-02-12T03:24:55;8.50;99.90
9103;DHT22;4587;51.434;6.788;2023-02-12T03:27:29;8.40;99.90
9103;DHT22;4587;51.434;6.788;2023-02-12T03:29:56;8.50;99.90
9103;DHT22;4587;51.434;6.788;2023-02-12T03:32:52;8.40;99.90
9103;DHT22;4587;51.434;6.788;2023-02-12T03:35:58;8.40;99.90
9103;DHT22;4587;51.434;6.788;2023-02-12T03:38:42;8.50;99.90
9103;DHT22;4587;51.434;6.788;2023-02-12T03:41:13;8.50;99.90
9103;DHT22;4587;51.434;6.788;2023-02-12T03:44:05;8.50;99.90
9103;DHT22;4587;51.434;6.788;2023-02-12T03:47:07;8.40;99.90
9103;DHT22;4587;51.434;6.788;2023-02-12T03:49:43;8.40;99.90
9103;DHT22;4587;51.434;6.788;2023-02-12T03:52:13;8.40;99.90
9103;DHT22;4587;51.434;6.788;2023-02-12T03:54:38;8.40;99.90
9103;DHT22;4587;51.434;6.788;2023-02-12T03:57:11;8.50;99.90
9103;DHT22;4587;51.434;6.788;2023-02-12T03:59:38;8.50;99.90
9103;DHT22;4587;51.434;6.788;2023-02-12T04:02:05;8.50;99.90
9103;DHT22;4587;51.434;6.788;2023-02-12T04:04:31;8.50;99.90
9103;DHT22;4587;51.434;6.788;2023-02-12T04:06:57;8.50;99.90
9103;DHT22;4587;51.434;6.788;2023-02-12T04:09:25;8.40;99.90
9103;DHT22;4587;51.434;6.788;2023-02-12T04:12:20;8.50;99.90
9103;DHT22;4587;51.434;6.788;2023-02-12T04:15:33;8.40;99.90
9103;DHT22;4587;51.434;6.788;2023-02-12T04:20:53;8.50;99.90
9103;DHT22;4587;51.434;6.788;2023-02-12T04:23:47;8.50;99.90
9103;DHT22;4587;51.434;6.788;2023-02-12T04:31:54;8.40;99.90
9103;DHT22;4587;51.434;6.788;2023-02-12T04:34:34;8.40;99.90
9103;DHT22;4587;51.434;6.788;2023-02-12T04:37:27;8.40;99.90
9103;DHT22;4587;51.434;6.788;2023-02-12T04:39:55;8.50;99.90
9103;DHT22;4587;51.434;6.788;2023-02-12T04:42:22;8.60;99.90
9103;DHT22;4587;51.434;6.788;2023-02-12T04:44:48;8.50;99.90
9103;DHT22;4587;51.434;6.788;2023-02-12T04:47:15;8.50;99.90
9103;DHT22;4587;51.434;6.788;2023-02-12T04:49:41;8.40;99.90
9103;DHT22;4587;51.434;6.788;2023-02-12T04:52:07;8.40;99.90
9103;DHT22;4587;51.434;6.788;2023-02-12T04:54:33;8.40;99.90
9103;DHT22;4587;51.434;6.788;2023-02-12T04:56:59;8.40;99.90
9103;DHT22;4587;51.434;6.788;2023-02-12T04:59:25;8.30;99.90
9103;DHT22;4587;51.434;6.788;2023-02-12T05:01:50;8.30;99.90
9103;DHT22;4587;51.434;6.788;2023-02-12T05:04:17;8.30;99.90
9103;DHT22;4587;51.434;6.788;2023-02-12T05:06:44;8.30;99.90
9103;DHT22;4587;51.434;6.788;2023-02-12T05:09:17;8.30;99.90
9103;DHT22;4587;51.434;6.788;2023-02-12T05:11:42;8.30;99.90
9103;DHT22;4587;51.434;6.788;2023-02-12T05:14:08;8.40;99.90
9103;DHT22;4587;51.434;6.788;2023-02-12T05:16:34;8.30;99.90
9103;DHT22;4587;51.434;6.788;2023-02-12T05:18:59;8.30;99.90
9103;DHT22;4587;51.434;6.788;2023-02-12T05:21:25;8.30;99.90
9103;DHT22;4587;51.434;6.788;2023-02-12T05:23:50;8.30;99.90
9103;DHT22;4587;51.434;6.788;2023-02-12T05:26:18;8.20;99.90
9103;DHT22;4587;51.434;6.788;2023-02-12T05:28:44;8.20;99.90
9103;DHT22;4587;51.434;6.788;2023-02-12T05:31:13;8.20;99.90
9103;DHT22;4587;51.434;6.788;2023-02-12T05:33:44;8.20;99.90
9103;DHT22;4587;51.434;6.788;2023-02-12T05:36:12;8.20;99.90
9103;DHT22;4587;51.434;6.788;2023-02-12T05:38:38;8.20;99.90
9103;DHT22;4587;51.434;6.788;2023-02-12T05:41:06;8.20;99.90
9103;DHT22;4587;51.434;6.788;2023-02-12T05:43:32;8.30;99.90
9103;DHT22;4587;51.434;6.788;2023-02-12T05:45:59;8.30;99.90
9103;DHT22;4587;51.434;6.788;2023-02-12T05:48:26;8.20;99.90
9103;DHT22;4587;51.434;6.788;2023-02-12T05:50:52;8.20;99.90
9103;DHT22;4587;51.434;6.788;2023-02-12T05:53:17;8.20;99.90
9103;DHT22;4587;51.434;6.788;2023-02-12T05:55:43;8.20;99.90
9103;DHT22;4587;51.434;6.788;2023-02-12T05:58:08;8.20;99.90
9103;DHT22;4587;51.434;6.788;2023-02-12T06:00:34;8.20;99.90
9103;DHT22;4587;51.434;6.788;2023-02-12T06:02:59;8.20;99.90
9103;DHT22;4587;51.434;6.788;2023-02-12T06:05:25;8.20;99.90
9103;DHT22;4587;51.434;6.788;2023-02-12T06:07:50;8.20;99.90
9103;DHT22;4587;51.434;6.788;2023-02-12T06:10:16;8.20;99.90
9103;DHT22;4587;51.434;6.788;2023-02-12T06:12:42;8.20;99.90
9103;DHT22;4587;51.434;6.788;2023-02-12T06:15:07;8.20;99.90
9103;DHT22;4587;51.434;6.788;2023-02-12T06:17:33;8.20;99.90
9103;DHT22;4587;51.434;6.788;2023-02-12T06:19:59;8.30;99.90
9103;DHT22;4587;51.434;6.788;2023-02-12T06:22:24;8.20;99.90
9103;DHT22;4587;51.434;6.788;2023-02-12T06:24:50;8.30;99.90
9103;DHT22;4587;51.434;6.788;2023-02-12T06:27:15;8.30;99.90
9103;DHT22;4587;51.434;6.788;2023-02-12T06:29:41;8.20;99.90
9103;DHT22;4587;51.434;6.788;2023-02-12T06:32:07;8.20;99.90
9103;DHT22;4587;51.434;6.788;2023-02-12T06:34:33;8.20;99.90
9103;DHT22;4587;51.434;6.788;2023-02-12T06:36:58;8.20;99.90
9103;DHT22;4587;51.434;6.788;2023-02-12T06:39:24;8.30;99.90
9103;DHT22;4587;51.434;6.788;2023-02-12T06:41:50;8.20;99.90
9103;DHT22;4587;51.434;6.788;2023-02-12T06:44:15;8.20;99.90
9103;DHT22;4587;51.434;6.788;2023-02-12T06:46:41;8.20;99.90
9103;DHT22;4587;51.434;6.788;2023-02-12T06:49:07;8.20;99.90
9103;DHT22;4587;51.434;6.788;2023-02-12T06:51:32;8.30;99.90
9103;DHT22;4587;51.434;6.788;2023-02-12T06:53:58;8.40;99.90
9103;DHT22;4587;51.434;6.788;2023-02-12T06:56:25;8.30;99.90
9103;DHT22;4587;51.434;6.788;2023-02-12T06:58:56;8.30;99.90
9103;DHT22;4587;51.434;6.788;2023-02-12T07:01:24;8.30;99.90
9103;DHT22;4587;51.434;6.788;2023-02-12T07:03:51;8.30;99.90
9103;DHT22;4587;51.434;6.788;2023-02-12T07:06:18;8.30;99.90
9103;DHT22;4587;51.434;6.788;2023-02-12T07:08:44;8.30;99.90
9103;DHT22;4587;51.434;6.788;2023-02-12T07:11:11;8.30;99.90
9103;DHT22;4587;51.434;6.788;2023-02-12T07:13:36;8.40;99.90
9103;DHT22;4587;51.434;6.788;2023-02-12T07:16:07;8.40;99.90
9103;DHT22;4587;51.434;6.788;2023-02-12T07:18:36;8.40;99.90
9103;DHT22;4587;51.434;6.788;2023-02-12T07:21:03;8.40;99.90
9103;DHT22;4587;51.434;6.788;2023-02-12T07:23:29;8.40;99.90
9103;DHT22;4587;51.434;6.788;2023-02-12T07:25:58;8.40;99.90
9103;DHT22;4587;51.434;6.788;2023-02-12T07:28:24;8.40;99.90
9103;DHT22;4587;51.434;6.788;2023-02-12T07:30:51;8.50;99.90
9103;DHT22;4587;51.434;6.788;2023-02-12T07:33:18;8.50;99.90
9103;DHT22;4587;51.434;6.788;2023-02-12T07:35:45;8.50;99.90
9103;DHT22;4587;51.434;6.788;2023-02-12T07:38:11;8.50;99.90
9103;DHT22;4587;51.434;6.788;2023-02-12T07:40:36;8.50;99.90
9103;DHT22;4587;51.434;6.788;2023-02-12T07:43:02;8.50;99.90
9103;DHT22;4587;51.434;6.788;2023-02-12T07:45:28;8.50;99.90
9103;DHT22;4587;51.434;6.788;2023-02-12T07:47:53;8.50;99.90
9103;DHT22;4587;51.434;6.788;2023-02-12T07:50:19;8.60;99.90
9103;DHT22;4587;51.434;6.788;2023-02-12T07:52:45;8.60;99.90
9103;DHT22;4587;51.434;6.788;2023-02-12T07:55:12;8.60;99.90
9103;DHT22;4587;51.434;6.788;2023-02-12T07:57:38;8.70;99.90
9103;DHT22;4587;51.434;6.788;2023-02-12T08:00:04;8.70;99.90
9103;DHT22;4587;51.434;6.788;2023-02-12T08:02:30;8.60;99.90
9103;DHT22;4587;51.434;6.788;2023-02-12T08:04:56;8.60;99.90
9103;DHT22;4587;51.434;6.788;2023-02-12T08:07:23;8.60;99.90
9103;DHT22;4587;51.434;6.788;2023-02-12T08:09:49;8.70;99.90
9103;DHT22;4587;51.434;6.788;2023-02-12T08:12:15;8.80;99.90
9103;DHT22;4587;51.434;6.788;2023-02-12T08:14:41;8.90;99.90
9103;DHT22;4587;51.434;6.788;2023-02-12T08:17:07;8.90;99.90
9103;DHT22;4587;51.434;6.788;2023-02-12T08:19:33;8.90;99.90
9103;DHT22;4587;51.434;6.788;2023-02-12T08:21:59;8.90;99.90
9103;DHT22;4587;51.434;6.788;2023-02-12T08:24:28;8.90;99.90
9103;DHT22;4587;51.434;6.788;2023-02-12T08:26:54;8.90;99.90
9103;DHT22;4587;51.434;6.788;2023-02-12T08:29:22;9.00;99.90
9103;DHT22;4587;51.434;6.788;2023-02-12T08:31:49;9.00;99.90
9103;DHT22;4587;51.434;6.788;2023-02-12T08:34:24;9.00;99.90
9103;DHT22;4587;51.434;6.788;2023-02-12T08:36:51;9.10;99.90
9103;DHT22;4587;51.434;6.788;2023-02-12T08:39:21;9.10;99.90
9103;DHT22;4587;51.434;6.788;2023-02-12T08:41:47;9.10;99.90
9103;DHT22;4587;51.434;6.788;2023-02-12T08:44:15;9.30;99.90
9103;DHT22;4587;51.434;6.788;2023-02-12T08:46:49;9.30;99.90
9103;DHT22;4587;51.434;6.788;2023-02-12T08:49:24;9.30;99.90
9103;DHT22;4587;51.434;6.788;2023-02-12T08:51:52;9.20;99.90
9103;DHT22;4587;51.434;6.788;2023-02-12T08:54:21;9.30;99.90
9103;DHT22;4587;51.434;6.788;2023-02-12T08:56:46;9.30;99.90
9103;DHT22;4587;51.434;6.788;2023-02-12T08:59:14;9.30;99.90
9103;DHT22;4587;51.434;6.788;2023-02-12T09:01:40;9.40;99.90
9103;DHT22;4587;51.434;6.788;2023-02-12T09:04:09;9.50;99.90
9103;DHT22;4587;51.434;6.788;2023-02-12T09:06:37;9.60;99.90
9103;DHT22;4587;51.434;6.788;2023-02-12T09:09:03;9.60;99.90
9103;DHT22;4587;51.434;6.788;2023-02-12T09:11:29;9.60;99.90
9103;DHT22;4587;51.434;6.788;2023-02-12T09:14:00;9.70;99.90
9103;DHT22;4587;51.434;6.788;2023-02-12T09:16:27;9.80;99.90
9103;DHT22;4587;51.434;6.788;2023-02-12T09:18:53;9.80;99.90
9103;DHT22;4587;51.434;6.788;2023-02-12T09:21:19;9.90;99.90
9103;DHT22;4587;51.434;6.788;2023-02-12T09:23:45;10.00;99.90
9103;DHT22;4587;51.434;6.788;2023-02-12T09:26:13;10.00;99.90
9103;DHT22;4587;51.434;6.788;2023-02-12T09:28:42;10.10;99.90
9103;DHT22;4587;51.434;6.788;2023-02-12T09:31:10;10.20;99.90
9103;DHT22;4587;51.434;6.788;2023-02-12T09:33:37;10.30;99.90
9103;DHT22;4587;51.434;6.788;2023-02-12T09:36:06;10.30;99.90
9103;DHT22;4587;51.434;6.788;2023-02-12T09:38:32;10.30;99.90
9103;DHT22;4587;51.434;6.788;2023-02-12T09:44:21;10.40;99.90
9103;DHT22;4587;51.434;6.788;2023-02-12T09:47:07;10.50;99.90
9103;DHT22;4587;51.434;6.788;2023-02-12T09:49:46;10.50;99.90
9103;DHT22;4587;51.434;6.788;2023-02-12T09:52:19;10.70;99.90
9103;DHT22;4587;51.434;6.788;2023-02-12T09:54:45;10.90;99.90
9103;DHT22;4587;51.434;6.788;2023-02-12T09:57:32;10.90;99.90
9103;DHT22;4587;51.434;6.788;2023-02-12T10:00:29;10.80;99.90
9103;DHT22;4587;51.434;6.788;2023-02-12T10:03:00;10.80;99.90
9103;DHT22;4587;51.434;6.788;2023-02-12T10:05:31;10.80;99.90
9103;DHT22;4587;51.434;6.788;2023-02-12T10:10:46;10.90;99.90
9103;DHT22;4587;51.434;6.788;2023-02-12T10:19:17;10.90;99.90
9103;DHT22;4587;51.434;6.788;2023-02-12T10:27:06;11.00;99.90
9103;DHT22;4587;51.434;6.788;2023-02-12T10:29:37;11.00;99.90
9103;DHT22;4587;51.434;6.788;2023-02-12T10:32:09;11.00;99.90
9103;DHT22;4587;51.434;6.788;2023-02-12T10:34:36;11.00;99.90
9103;DHT22;4587;51.434;6.788;2023-02-12T10:39:55;11.10;99.90
9103;DHT22;4587;51.434;6.788;2023-02-12T10:42:43;11.20;99.90
9103;DHT22;4587;51.434;6.788;2023-02-12T10:45:33;11.20;99.90
9103;DHT22;4587;51.434;6.788;2023-02-12T10:48:09;11.10;99.90
9103;DHT22;4587;51.434;6.788;2023-02-12T10:53:30;11.20;99.90
9103;DHT22;4587;51.434;6.788;2023-02-12T10:58:31;11.30;99.90
9103;DHT22;4587;51.434;6.788;2023-02-12T11:00:58;11.40;99.90
9103;DHT22;4587;51.434;6.788;2023-02-12T11:03:31;11.30;99.90
9103;DHT22;4587;51.434;6.788;2023-02-12T11:06:17;11.40;99.90
9103;DHT22;4587;51.434;6.788;2023-02-12T11:08:43;11.40;99.90
9103;DHT22;4587;51.434;6.788;2023-02-12T11:14:37;11.50;99.90
9103;DHT22;4587;51.434;6.788;2023-02-12T11:16:44;11.50;99.90
9103;DHT22;4587;51.434;6.788;2023-02-12T11:19:21;11.50;99.90
9103;DHT22;4587;51.434;6.788;2023-02-12T11:21:47;11.40;99.90
9103;DHT22;4587;51.434;6.788;2023-02-12T11:24:31;11.50;99.90
9103;DHT22;4587;51.434;6.788;2023-02-12T11:27:30;11.50;99.90
9103;DHT22;4587;51.434;6.788;2023-02-12T11:30:19;11.60;99.90
9103;DHT22;4587;51.434;6.788;2023-02-12T11:32:46;11.70;99.90
9103;DHT22;4587;51.434;6.788;2023-02-12T11:35:21;11.70;99.90
9103;DHT22;4587;51.434;6.788;2023-02-12T11:38:02;11.70;99.90
9103;DHT22;4587;51.434;6.788;2023-02-12T11:40:30;11.70;99.90
9103;DHT22;4587;51.434;6.788;2023-02-12T11:43:07;11.80;99.90
9103;DHT22;4587;51.434;6.788;2023-02-12T11:50:52;11.70;99.90
9103;DHT22;4587;51.434;6.788;2023-02-12T11:53:24;11.60;99.90
9103;DHT22;4587;51.434;6.788;2023-02-12T11:56:04;11.60;99.90
9103;DHT22;4587;51.434;6.788;2023-02-12T11:58:30;11.50;99.90
9103;DHT22;4587;51.434;6.788;2023-02-12T12:11:38;11.60;99.90
9103;DHT22;4587;51.434;6.788;2023-02-12T12:19:58;11.50;99.90
9103;DHT22;4587;51.434;6.788;2023-02-12T12:22:48;11.60;99.90
9103;DHT22;4587;51.434;6.788;2023-02-12T12:25:30;11.50;99.90
9103;DHT22;4587;51.434;6.788;2023-02-12T12:28:10;11.50;99.90
9103;DHT22;4587;51.434;6.788;2023-02-12T12:33:25;11.50;99.90
9103;DHT22;4587;51.434;6.788;2023-02-12T12:41:11;11.50;99.90
9103;DHT22;4587;51.434;6.788;2023-02-12T12:46:38;11.60;99.90
9103;DHT22;4587;51.434;6.788;2023-02-12T13:12:06;11.50;99.90
9103;DHT22;4587;51.434;6.788;2023-02-12T13:14:46;11.60;99.90
9103;DHT22;4587;51.434;6.788;2023-02-12T13:22:47;11.60;99.90
9103;DHT22;4587;51.434;6.788;2023-02-12T13:28:12;11.70;99.90
9103;DHT22;4587;51.434;6.788;2023-02-12T13:30:47;11.70;99.90
9103;DHT22;4587;51.434;6.788;2023-02-12T13:33:26;11.70;99.90
9103;DHT22;4587;51.434;6.788;2023-02-12T13:35:55;11.60;99.90
9103;DHT22;4587;51.434;6.788;2023-02-12T13:38:33;11.60;99.90
9103;DHT22;4587;51.434;6.788;2023-02-12T13:41:06;11.70;99.90
9103;DHT22;4587;51.434;6.788;2023-02-12T13:46:22;11.60;99.90
9103;DHT22;4587;51.434;6.788;2023-02-12T13:49:28;11.50;99.90
9103;DHT22;4587;51.434;6.788;2023-02-12T13:52:02;11.40;99.90
9103;DHT22;4587;51.434;6.788;2023-02-12T13:54:53;11.40;99.90
9103;DHT22;4587;51.434;6.788;2023-02-12T13:57:20;11.30;99.90
9103;DHT22;4587;51.434;6.788;2023-02-12T13:59:49;11.30;99.90
9103;DHT22;4587;51.434;6.788;2023-02-12T14:02:40;11.30;99.90
9103;DHT22;4587;51.434;6.788;2023-02-12T14:05:26;11.30;99.90
9103;DHT22;4587;51.434;6.788;2023-02-12T14:08:01;11.30;99.90
9103;DHT22;4587;51.434;6.788;2023-02-12T14:10:30;11.30;99.90
9103;DHT22;4587;51.434;6.788;2023-02-12T14:13:15;11.30;99.90
9103;DHT22;4587;51.434;6.788;2023-02-12T14:15:51;11.20;99.90
9103;DHT22;4587;51.434;6.788;2023-02-12T14:18:34;11.30;99.90
9103;DHT22;4587;51.434;6.788;2023-02-12T14:23:39;11.30;99.90
9103;DHT22;4587;51.434;6.788;2023-02-12T14:26:11;11.30;99.90
9103;DHT22;4587;51.434;6.788;2023-02-12T14:28:56;11.30;99.90
9103;DHT22;4587;51.434;6.788;2023-02-12T14:36:38;11.30;99.90
9103;DHT22;4587;51.434;6.788;2023-02-12T14:41:50;11.20;99.90
9103;DHT22;4587;51.434;6.788;2023-02-12T14:46:49;11.30;99.90
9103;DHT22;4587;51.434;6.788;2023-02-12T14:52:11;11.20;99.90
9103;DHT22;4587;51.434;6.788;2023-02-12T14:54:44;11.20;99.90
9103;DHT22;4587;51.434;6.788;2023-02-12T14:57:35;11.20;99.90
9103;DHT22;4587;51.434;6.788;2023-02-12T15:02:44;11.30;99.90
9103;DHT22;4587;51.434;6.788;2023-02-12T15:05:17;11.20;99.90
9103;DHT22;4587;51.434;6.788;2023-02-12T15:10:36;11.20;99.90
9103;DHT22;4587;51.434;6.788;2023-02-12T15:13:15;11.20;99.90
9103;DHT22;4587;51.434;6.788;2023-02-12T15:21:18;11.10;99.90
9103;DHT22;4587;51.434;6.788;2023-02-12T15:23:47;11.10;99.90
9103;DHT22;4587;51.434;6.788;2023-02-12T15:26:16;11.10;99.90
9103;DHT22;4587;51.434;6.788;2023-02-12T15:28:45;11.00;99.90
9103;DHT22;4587;51.434;6.788;2023-02-12T15:31:15;11.00;99.90
9103;DHT22;4587;51.434;6.788;2023-02-12T15:33:46;11.10;99.90
9103;DHT22;4587;51.434;6.788;2023-02-12T15:36:16;11.10;99.90
9103;DHT22;4587;51.434;6.788;2023-02-12T15:38:43;11.10;99.90
9103;DHT22;4587;51.434;6.788;2023-02-12T15:41:39;11.10;99.90
9103;DHT22;4587;51.434;6.788;2023-02-12T15:44:26;11.00;99.90
9103;DHT22;4587;51.434;6.788;2023-02-12T15:49:39;10.90;99.90
9103;DHT22;4587;51.434;6.788;2023-02-12T15:54:33;10.90;99.90
9103;DHT22;4587;51.434;6.788;2023-02-12T15:56:59;10.90;99.90
9103;DHT22;4587;51.434;6.788;2023-02-12T15:59:26;10.90;99.90
9103;DHT22;4587;51.434;6.788;2023-02-12T16:01:58;10.90;99.90
9103;DHT22;4587;51.434;6.788;2023-02-12T16:04:28;10.90;99.90
9103;DHT22;4587;51.434;6.788;2023-02-12T16:06:55;10.90;99.90
9103;DHT22;4587;51.434;6.788;2023-02-12T16:09:30;10.90;99.90
9103;DHT22;4587;51.434;6.788;2023-02-12T16:11:59;10.80;99.90
9103;DHT22;4587;51.434;6.788;2023-02-12T16:14:30;10.70;99.90
9103;DHT22;4587;51.434;6.788;2023-02-12T16:16:59;10.80;99.90
9103;DHT22;4587;51.434;6.788;2023-02-12T16:19:30;10.80;99.90
9103;DHT22;4587;51.434;6.788;2023-02-12T16:24:37;10.80;99.90
9103;DHT22;4587;51.434;6.788;2023-02-12T16:27:18;10.80;99.90
9103;DHT22;4587;51.434;6.788;2023-02-12T16:29:57;10.70;99.90
9103;DHT22;4587;51.434;6.788;2023-02-12T16:42:38;10.60;99.90
9103;DHT22;4587;51.434;6.788;2023-02-12T16:47:53;10.70;99.90
9103;DHT22;4587;51.434;6.788;2023-02-12T16:50:21;10.80;99.90
9103;DHT22;4587;51.434;6.788;2023-02-12T16:52:48;10.80;99.90
9103;DHT22;4587;51.434;6.788;2023-02-12T16:55:16;10.70;99.90
9103;DHT22;4587;51.434;6.788;2023-02-12T16:57:42;10.70;99.90
9103;DHT22;4587;51.434;6.788;2023-02-12T17:00:10;10.60;99.90
9103;DHT22;4587;51.434;6.788;2023-02-12T17:02:36;10.60;99.90
9103;DHT22;4587;51.434;6.788;2023-02-12T17:05:03;10.50;99.90
9103;DHT22;4587;51.434;6.788;2023-02-12T17:07:32;10.50;99.90
9103;DHT22;4587;51.434;6.788;2023-02-12T17:09:58;10.60;99.90
9103;DHT22;4587;51.434;6.788;2023-02-12T17:12:24;10.50;99.90
9103;DHT22;4587;51.434;6.788;2023-02-12T17:14:50;10.50;99.90
9103;DHT22;4587;51.434;6.788;2023-02-12T17:17:15;10.40;99.90
9103;DHT22;4587;51.434;6.788;2023-02-12T17:19:41;10.40;99.90
9103;DHT22;4587;51.434;6.788;2023-02-12T17:22:17;10.40;99.90
9103;DHT22;4587;51.434;6.788;2023-02-12T17:24:43;10.40;99.90
9103;DHT22;4587;51.434;6.788;2023-02-12T17:27:13;10.40;99.90
9103;DHT22;4587;51.434;6.788;2023-02-12T17:29:39;10.40;99.90
9103;DHT22;4587;51.434;6.788;2023-02-12T17:32:04;10.40;99.90
9103;DHT22;4587;51.434;6.788;2023-02-12T17:34:30;10.40;99.90
9103;DHT22;4587;51.434;6.788;2023-02-12T17:36:55;10.40;99.90
9103;DHT22;4587;51.434;6.788;2023-02-12T17:39:21;10.40;99.90
9103;DHT22;4587;51.434;6.788;2023-02-12T17:41:47;10.40;99.90
9103;DHT22;4587;51.434;6.788;2023-02-12T17:44:12;10.40;99.90
9103;DHT22;4587;51.434;6.788;2023-02-12T17:46:40;10.40;99.90
9103;DHT22;4587;51.434;6.788;2023-02-12T17:49:06;10.40;99.90
9103;DHT22;4587;51.434;6.788;2023-02-12T17:51:31;10.50;99.90
9103;DHT22;4587;51.434;6.788;2023-02-12T17:53:57;10.50;99.90
9103;DHT22;4587;51.434;6.788;2023-02-12T17:56:23;10.50;99.90
9103;DHT22;4587;51.434;6.788;2023-02-12T17:58:51;10.50;99.90
9103;DHT22;4587;51.434;6.788;2023-02-12T18:01:20;10.50;99.90
9103;DHT22;4587;51.434;6.788;2023-02-12T18:03:46;10.50;99.90
9103;DHT22;4587;51.434;6.788;2023-02-12T18:06:12;10.40;99.90
9103;DHT22;4587;51.434;6.788;2023-02-12T18:08:41;10.40;99.90
9103;DHT22;4587;51.434;6.788;2023-02-12T18:11:08;10.40;99.90
9103;DHT22;4587;51.434;6.788;2023-02-12T18:13:37;10.40;99.90
9103;DHT22;4587;51.434;6.788;2023-02-12T18:16:08;10.40;99.90
9103;DHT22;4587;51.434;6.788;2023-02-12T18:18:34;10.40;99.90
9103;DHT22;4587;51.434;6.788;2023-02-12T18:21:00;10.40;99.90
9103;DHT22;4587;51.434;6.788;2023-02-12T18:23:30;10.50;99.90
9103;DHT22;4587;51.434;6.788;2023-02-12T18:25:55;10.50;99.90
9103;DHT22;4587;51.434;6.788;2023-02-12T18:28:21;10.40;99.90
9103;DHT22;4587;51.434;6.788;2023-02-12T18:30:54;10.40;99.90
9103;DHT22;4587;51.434;6.788;2023-02-12T18:33:20;10.40;99.90
9103;DHT22;4587;51.434;6.788;2023-02-12T18:35:59;10.50;99.90
9103;DHT22;4587;51.434;6.788;2023-02-12T18:38:26;10.40;99.90
9103;DHT22;4587;51.434;6.788;2023-02-12T18:40:52;10.40;99.90
9103;DHT22;4587;51.434;6.788;2023-02-12T18:43:17;10.40;99.90
9103;DHT22;4587;51.434;6.788;2023-02-12T18:45:43;10.30;99.90
9103;DHT22;4587;51.434;6.788;2023-02-12T18:48:08;10.40;99.90
9103;DHT22;4587;51.434;6.788;2023-02-12T18:50:36;10.40;99.90
9103;DHT22;4587;51.434;6.788;2023-02-12T18:53:02;10.40;99.90
9103;DHT22;4587;51.434;6.788;2023-02-12T18:55:28;10.30;99.90
9103;DHT22;4587;51.434;6.788;2023-02-12T18:57:53;10.40;99.90
9103;DHT22;4587;51.434;6.788;2023-02-12T19:00:19;10.50;99.90
9103;DHT22;4587;51.434;6.788;2023-02-12T19:02:45;10.40;99.90
9103;DHT22;4587;51.434;6.788;2023-02-12T19:05:11;10.30;99.90
9103;DHT22;4587;51.434;6.788;2023-02-12T19:07:36;10.30;99.90
9103;DHT22;4587;51.434;6.788;2023-02-12T19:10:02;10.30;99.90
9103;DHT22;4587;51.434;6.788;2023-02-12T19:12:28;10.20;99.90
9103;DHT22;4587;51.434;6.788;2023-02-12T19:14:54;10.30;99.90
9103;DHT22;4587;51.434;6.788;2023-02-12T19:17:19;10.20;99.90
9103;DHT22;4587;51.434;6.788;2023-02-12T19:19:47;10.20;99.90
9103;DHT22;4587;51.434;6.788;2023-02-12T19:22:13;10.30;99.90
9103;DHT22;4587;51.434;6.788;2023-02-12T19:24:39;10.30;99.90
9103;DHT22;4587;51.434;6.788;2023-02-12T19:27:04;10.40;99.90
9103;DHT22;4587;51.434;6.788;2023-02-12T19:29:30;10.40;99.90
9103;DHT22;4587;51.434;6.788;2023-02-12T19:31:55;10.30;99.90